Time;durP1;ratioP1;P1;durP2;ratioP2;P2;SDS_P1;SDS_P2;PMS_P1;PMS_P2;Temp;Humidity;BMP_temperature;BMP_pressure;BME280_temperature;BME280_humidity;BME280_pressure;Samples;Min_cycle;Max_cycle;Signal;HPM_P1;HPM_P2
2021/11/16 00:01:37;;;;;;;82.65;36.70;;;4.70;99.90;;;;;;5013213;28;20030;-74
2021/11/16 00:04:03;;;;;;;82.15;37.10;;;4.70;99.90;;;;;;5013335;28;20022;-74
2021/11/16 00:06:28;;;;;;;84.82;37.65;;;4.60;99.90;;;;;;5013136;28;20025;-74
2021/11/16 00:08:54;;;;;;;87.03;37.90;;;4.60;99.90;;;;;;5013189;28;20037;-75
2021/11/16 00:11:20;;;;;;;88.60;38.13;;;4.60;99.90;;;;;;5011759;28;20112;-74
2021/11/16 00:13:46;;;;;;;91.82;40.28;;;4.60;99.90;;;;;;5011924;28;20030;-74
2021/11/16 00:16:12;;;;;;;88.57;39.30;;;4.70;99.90;;;;;;5013049;28;20038;-74
2021/11/16 00:18:38;;;;;;;89.13;37.97;;;4.70;99.90;;;;;;5011821;28;20436;-74
2021/11/16 00:21:06;;;;;;;83.50;38.20;;;4.70;99.90;;;;;;5012989;28;20037;-74
2021/11/16 00:23:34;;;;;;;91.20;38.15;;;4.60;99.90;;;;;;5012955;28;20152;-74
2021/11/16 00:26:02;;;;;;;84.53;37.83;;;4.60;99.90;;;;;;5013033;28;20049;-75
2021/11/16 00:28:28;;;;;;;86.18;37.53;;;4.60;99.90;;;;;;5013043;28;20537;-74
2021/11/16 00:30:53;;;;;;;88.80;37.83;;;4.60;99.90;;;;;;5012957;28;20033;-74
2021/11/16 00:33:21;;;;;;;84.78;36.75;;;4.70;99.90;;;;;;5013012;28;20033;-75
2021/11/16 00:35:48;;;;;;;88.15;40.33;;;4.70;99.90;;;;;;5012839;28;20137;-74
2021/11/16 00:38:16;;;;;;;90.50;41.80;;;4.70;99.90;;;;;;5012843;28;20376;-75
2021/11/16 00:40:43;;;;;;;92.13;39.25;;;4.70;99.90;;;;;;5012858;28;20022;-74
2021/11/16 00:43:09;;;;;;;97.68;36.50;;;4.70;99.90;;;;;;5011654;28;20109;-74
2021/11/16 00:45:41;;;;;;;92.35;42.80;;;4.70;99.90;;;;;;5012869;28;20026;-75
2021/11/16 00:48:08;;;;;;;97.13;42.70;;;4.70;99.90;;;;;;5012844;28;20032;-74
2021/11/16 00:50:35;;;;;;;85.00;37.15;;;4.70;99.90;;;;;;5012757;28;20113;-74
2021/11/16 00:53:01;;;;;;;89.65;40.60;;;4.70;99.90;;;;;;5012701;28;20018;-75
2021/11/16 00:55:27;;;;;;;88.25;37.10;;;4.70;99.90;;;;;;5012680;28;20472;-74
2021/11/16 00:57:52;;;;;;;87.28;38.88;;;4.70;99.90;;;;;;5012758;28;20030;-74
2021/11/16 01:00:18;;;;;;;82.25;35.75;;;4.70;99.90;;;;;;5011486;28;20033;-74
2021/11/16 01:02:45;;;;;;;84.22;36.80;;;4.80;99.90;;;;;;5011487;28;20427;-74
2021/11/16 01:05:14;;;;;;;85.40;36.38;;;4.80;99.90;;;;;;5013321;28;20025;-74
2021/11/16 01:07:41;;;;;;;87.30;39.53;;;4.70;99.90;;;;;;5016442;28;20026;-74
2021/11/16 01:10:11;;;;;;;84.40;36.88;;;4.80;99.90;;;;;;5015063;28;20441;-74
2021/11/16 01:12:37;;;;;;;77.25;35.35;;;4.80;99.90;;;;;;5016275;28;20041;-74
2021/11/16 01:15:04;;;;;;;85.68;36.90;;;4.80;99.90;;;;;;5016176;28;20065;-75
2021/11/16 01:17:30;;;;;;;83.82;36.22;;;4.80;99.90;;;;;;5016160;28;20380;-74
2021/11/16 01:19:56;;;;;;;81.80;36.33;;;4.80;99.90;;;;;;5016092;28;20084;-74
2021/11/16 01:22:22;;;;;;;89.05;37.78;;;4.80;99.90;;;;;;5014868;28;20021;-75
2021/11/16 01:24:48;;;;;;;89.70;39.67;;;4.80;99.90;;;;;;5016058;28;20018;-74
2021/11/16 01:27:18;;;;;;;91.05;38.30;;;4.80;99.90;;;;;;5016103;28;20425;-74
2021/11/16 01:29:46;;;;;;;99.88;40.92;;;4.80;99.90;;;;;;5015954;28;20621;-74
2021/11/16 01:32:26;;;;;;;79.57;36.35;;;4.80;99.90;;;;;;5015971;28;20026;-74
2021/11/16 01:34:52;;;;;;;83.72;40.55;;;4.80;99.90;;;;;;5014633;28;20026;-74
2021/11/16 01:37:17;;;;;;;80.18;37.00;;;4.80;99.90;;;;;;5014566;28;20509;-74
2021/11/16 01:39:43;;;;;;;81.10;37.40;;;4.70;99.90;;;;;;5015774;28;20026;-74
2021/11/16 01:42:09;;;;;;;89.50;38.80;;;4.70;99.90;;;;;;5015799;28;20507;-74
2021/11/16 01:44:35;;;;;;;88.63;37.40;;;4.70;99.90;;;;;;5015723;28;20479;-74
2021/11/16 01:47:01;;;;;;;91.25;40.22;;;4.70;99.90;;;;;;5015664;28;20403;-74
2021/11/16 01:49:27;;;;;;;83.82;39.08;;;4.70;99.90;;;;;;5018811;28;20021;-74
2021/11/16 01:51:53;;;;;;;96.32;37.97;;;4.70;99.90;;;;;;5035304;28;20026;-74
2021/11/16 01:54:18;;;;;;;86.38;36.90;;;4.70;99.90;;;;;;5035235;28;20025;-74
2021/11/16 01:56:45;;;;;;;92.15;38.65;;;4.80;99.90;;;;;;5035166;28;20033;-75
2021/11/16 01:59:14;;;;;;;91.85;38.58;;;4.80;99.90;;;;;;5035151;28;20037;-74
2021/11/16 02:01:40;;;;;;;82.50;36.42;;;4.70;99.90;;;;;;5035091;28;20064;-74
2021/11/16 02:04:08;;;;;;;87.50;39.08;;;4.70;99.90;;;;;;5035150;28;20037;-74
2021/11/16 02:06:36;;;;;;;84.28;38.28;;;4.70;99.90;;;;;;5033725;28;20414;-74
2021/11/16 02:09:07;;;;;;;85.97;36.03;;;4.70;99.90;;;;;;5033662;28;20068;-74
2021/11/16 02:11:33;;;;;;;94.47;36.58;;;4.70;99.90;;;;;;5034979;28;20554;-75
2021/11/16 02:13:59;;;;;;;86.00;37.38;;;4.70;99.90;;;;;;5033625;28;20045;-74
2021/11/16 02:16:26;;;;;;;85.18;39.38;;;4.70;99.90;;;;;;5034524;28;20040;-74
2021/11/16 02:18:51;;;;;;;93.55;38.25;;;4.70;99.90;;;;;;5034705;28;20395;-74
2021/11/16 02:21:18;;;;;;;87.70;38.17;;;4.70;99.90;;;;;;5034845;28;20017;-74
2021/11/16 02:23:44;;;;;;;90.82;36.13;;;4.70;99.90;;;;;;5034753;28;20014;-74
2021/11/16 02:26:12;;;;;;;87.22;38.13;;;4.60;99.90;;;;;;5034701;28;20506;-75
2021/11/16 02:28:37;;;;;;;92.53;38.08;;;4.60;99.90;;;;;;5034575;28;20468;-74
2021/11/16 02:31:05;;;;;;;95.07;38.05;;;4.60;99.90;;;;;;5034607;28;20112;-74
2021/11/16 02:33:32;;;;;;;100.45;38.70;;;4.60;99.90;;;;;;5034603;28;20053;-74
2021/11/16 02:35:57;;;;;;;92.25;35.65;;;4.60;99.90;;;;;;5034360;28;20037;-74
2021/11/16 02:38:23;;;;;;;88.03;35.60;;;4.50;99.90;;;;;;5033181;28;20036;-74
2021/11/16 02:40:49;;;;;;;83.20;36.70;;;4.50;99.90;;;;;;5034443;28;20500;-74
2021/11/16 02:43:15;;;;;;;95.32;41.85;;;4.50;99.90;;;;;;5033146;28;20025;-74
2021/11/16 02:45:42;;;;;;;87.40;38.88;;;4.50;99.90;;;;;;5033007;28;20028;-74
2021/11/16 02:48:14;;;;;;;94.90;38.25;;;4.50;99.90;;;;;;5034309;28;20029;-75
2021/11/16 02:50:41;;;;;;;92.47;42.20;;;4.50;99.90;;;;;;5034472;28;20029;-74
2021/11/16 02:53:07;;;;;;;98.75;44.17;;;4.50;99.90;;;;;;5032952;28;20075;-75
2021/11/16 02:55:32;;;;;;;93.88;40.90;;;4.50;99.90;;;;;;5032752;28;20112;-74
2021/11/16 02:57:58;;;;;;;87.07;37.15;;;4.50;99.90;;;;;;5034039;28;20029;-75
2021/11/16 03:00:24;;;;;;;96.80;42.20;;;4.50;99.90;;;;;;5034082;28;20100;-74
2021/11/16 03:02:50;;;;;;;92.28;40.97;;;4.50;99.90;;;;;;5032788;28;20026;-74
2021/11/16 03:05:16;;;;;;;98.45;40.53;;;4.60;99.90;;;;;;5034046;28;20111;-74
2021/11/16 03:07:56;;;;;;;106.22;43.00;;;4.60;99.90;;;;;;5032536;28;20056;-74
2021/11/16 03:10:25;;;;;;;109.28;45.10;;;4.60;99.90;;;;;;5034111;28;20459;-74
2021/11/16 03:12:52;;;;;;;101.70;40.92;;;4.60;99.90;;;;;;5033590;28;20060;-75
2021/11/16 03:15:19;;;;;;;98.32;40.05;;;4.60;99.90;;;;;;5033723;28;20053;-75
2021/11/16 03:17:45;;;;;;;101.80;40.22;;;4.60;99.90;;;;;;5033769;28;20100;-74
2021/11/16 03:20:13;;;;;;;98.55;39.90;;;4.70;99.90;;;;;;5033664;28;20030;-74
2021/11/16 03:23:07;;;;;;;106.88;40.80;;;4.70;99.90;;;;;;5033516;28;20025;-75
2021/11/16 03:25:35;;;;;;;89.78;37.97;;;4.60;99.90;;;;;;5033607;28;20053;-74
2021/11/16 03:28:07;;;;;;;103.45;41.95;;;4.60;99.90;;;;;;5031656;28;20491;-75
2021/11/16 03:30:34;;;;;;;91.40;38.88;;;4.50;99.90;;;;;;5033475;28;20028;-75
2021/11/16 03:33:00;;;;;;;92.57;37.33;;;4.50;99.90;;;;;;5033459;28;20021;-74
2021/11/16 03:35:26;;;;;;;99.00;42.00;;;4.50;99.90;;;;;;5048653;28;20501;-75
2021/11/16 03:37:57;;;;;;;94.10;38.67;;;4.50;99.90;;;;;;5033422;28;20021;-75
2021/11/16 03:40:23;;;;;;;94.05;35.85;;;4.50;99.90;;;;;;5032041;28;20021;-75
2021/11/16 03:42:50;;;;;;;95.65;38.38;;;4.50;99.90;;;;;;5033373;28;20078;-75
2021/11/16 03:45:18;;;;;;;102.80;40.03;;;4.50;99.90;;;;;;5033257;28;20483;-74
2021/11/16 03:47:45;;;;;;;98.88;38.88;;;4.40;99.90;;;;;;5033241;28;20021;-75
2021/11/16 03:50:14;;;;;;;104.78;41.50;;;4.40;99.90;;;;;;5033220;28;20547;-74
2021/11/16 03:52:42;;;;;;;95.20;39.22;;;4.40;99.90;;;;;;5031889;28;20022;-74
2021/11/16 03:55:11;;;;;;;98.18;39.65;;;4.50;99.90;;;;;;5033111;28;20029;-74
2021/11/16 03:57:37;;;;;;;90.68;38.42;;;4.50;99.90;;;;;;5031794;28;20037;-75
2021/11/16 04:00:14;;;;;;;94.03;40.45;;;4.50;99.90;;;;;;5033052;28;20084;-74
2021/11/16 04:02:40;;;;;;;93.78;38.90;;;4.50;99.90;;;;;;5033063;28;20356;-75
2021/11/16 04:05:06;;;;;;;99.80;39.75;;;4.50;99.90;;;;;;5033060;28;20129;-74
2021/11/16 04:07:33;;;;;;;101.15;38.13;;;4.50;99.90;;;;;;5033092;28;20036;-74
2021/11/16 04:09:58;;;;;;;94.40;38.47;;;4.50;99.90;;;;;;5032777;28;20491;-74
2021/11/16 04:12:24;;;;;;;94.13;39.95;;;4.50;99.90;;;;;;5031528;28;20020;-74
2021/11/16 04:14:50;;;;;;;96.00;38.78;;;4.50;99.90;;;;;;5032822;28;20018;-74
2021/11/16 04:17:17;;;;;;;99.43;39.72;;;4.50;99.90;;;;;;5033567;28;20076;-75
2021/11/16 04:19:43;;;;;;;100.68;40.13;;;4.60;99.90;;;;;;5032761;28;20033;-74
2021/11/16 04:22:09;;;;;;;106.13;39.15;;;4.60;99.90;;;;;;5032838;28;20109;-75
2021/11/16 04:24:35;;;;;;;113.97;44.47;;;4.60;99.90;;;;;;5032681;28;20104;-74
2021/11/16 04:27:01;;;;;;;101.45;40.42;;;4.50;99.90;;;;;;5032753;28;20480;-74
2021/11/16 04:29:27;;;;;;;112.50;41.78;;;4.50;99.90;;;;;;5032687;28;20064;-74
2021/11/16 04:31:52;;;;;;;111.72;42.92;;;4.50;99.90;;;;;;5031404;28;20020;-75
2021/11/16 04:34:18;;;;;;;111.68;43.22;;;4.60;99.90;;;;;;5032712;28;20510;-75
2021/11/16 04:36:44;;;;;;;141.32;48.33;;;4.60;99.90;;;;;;5032659;28;20560;-74
2021/11/16 04:39:10;;;;;;;131.57;46.97;;;4.50;99.90;;;;;;5034739;28;20030;-74
2021/11/16 04:41:37;;;;;;;113.53;45.53;;;4.50;99.90;;;;;;5036338;28;20068;-75
2021/11/16 04:44:05;;;;;;;117.57;46.20;;;4.50;99.90;;;;;;5035397;28;20038;-75
2021/11/16 04:46:32;;;;;;;124.13;45.65;;;4.60;99.90;;;;;;5036533;28;20014;-75
2021/11/16 04:49:06;;;;;;;119.32;46.13;;;4.50;99.90;;;;;;5036548;28;20483;-75
2021/11/16 04:51:45;;;;;;;125.93;47.60;;;4.60;99.90;;;;;;5036563;28;20022;-74
2021/11/16 05:04:50;;;;;;;118.82;43.85;;;4.50;99.90;;;;;;5036217;28;20107;-75
2021/11/16 05:07:18;;;;;;;137.30;46.05;;;4.50;99.90;;;;;;5036286;28;20029;-75
2021/11/16 05:09:49;;;;;;;124.72;43.42;;;4.50;99.90;;;;;;5034717;28;20037;-75
2021/11/16 05:12:15;;;;;;;126.28;44.08;;;4.50;99.90;;;;;;5036100;28;20490;-75
2021/11/16 05:14:41;;;;;;;113.75;43.85;;;4.50;99.90;;;;;;5036005;28;20163;-74
2021/11/16 05:17:07;;;;;;;139.57;47.00;;;4.50;99.90;;;;;;5035944;28;20518;-74
2021/11/16 05:19:32;;;;;;;142.05;48.28;;;4.50;99.90;;;;;;5035822;28;20032;-74
2021/11/16 05:21:58;;;;;;;122.20;45.90;;;4.50;99.90;;;;;;5035674;28;20079;-75
2021/11/16 05:24:25;;;;;;;130.18;49.40;;;4.50;99.90;;;;;;5035888;28;20029;-74
2021/11/16 05:26:51;;;;;;;141.90;51.50;;;4.50;99.90;;;;;;5035862;28;20517;-74
2021/11/16 05:29:17;;;;;;;135.70;46.30;;;4.50;99.90;;;;;;5034389;28;20021;-75
2021/11/16 05:31:43;;;;;;;129.90;45.83;;;4.50;99.90;;;;;;5023592;28;20037;-74
2021/11/16 05:34:09;;;;;;;131.68;48.80;;;4.50;99.90;;;;;;5021069;28;20131;-75
2021/11/16 05:36:35;;;;;;;137.98;46.28;;;4.50;99.90;;;;;;5035572;28;20399;-74
2021/11/16 05:39:00;;;;;;;142.77;51.20;;;4.60;99.90;;;;;;5028265;28;20052;-75
2021/11/16 05:41:26;;;;;;;136.77;45.75;;;4.50;99.90;;;;;;5015640;28;20079;-75
2021/11/16 05:43:52;;;;;;;133.15;48.00;;;4.50;99.90;;;;;;5015768;28;20026;-75
2021/11/16 05:46:22;;;;;;;137.10;48.63;;;4.50;99.90;;;;;;5015019;28;20145;-75
2021/11/16 05:48:53;;;;;;;136.90;48.67;;;4.50;99.90;;;;;;5011415;28;20022;-74
2021/11/16 05:51:20;;;;;;;145.95;51.47;;;4.60;99.90;;;;;;5031829;28;20025;-75
2021/11/16 05:53:52;;;;;;;134.57;49.90;;;4.50;99.90;;;;;;5033274;28;20394;-74
2021/11/16 05:56:20;;;;;;;142.80;49.38;;;4.60;99.90;;;;;;5032173;28;20038;-75
2021/11/16 05:58:47;;;;;;;141.02;46.90;;;4.50;99.90;;;;;;5031421;28;20017;-75
2021/11/16 06:01:12;;;;;;;147.02;50.17;;;4.50;99.90;;;;;;5032827;28;20472;-75
2021/11/16 06:03:38;;;;;;;132.05;46.50;;;4.50;99.90;;;;;;5032316;28;20036;-75
2021/11/16 06:06:04;;;;;;;141.20;47.80;;;4.50;99.90;;;;;;5033400;28;20025;-75
2021/11/16 06:08:29;;;;;;;169.45;51.88;;;4.50;99.90;;;;;;5033234;28;20426;-75
2021/11/16 06:10:56;;;;;;;185.48;51.88;;;4.50;99.90;;;;;;5049681;28;20430;-73
2021/11/16 06:13:23;;;;;;;122.18;44.20;;;4.50;99.90;;;;;;5016055;28;20084;-75
2021/11/16 06:15:49;;;;;;;140.32;50.17;;;4.40;99.90;;;;;;5013902;28;20042;-75
2021/11/16 06:18:15;;;;;;;171.45;52.42;;;4.40;99.90;;;;;;5013445;28;20534;-74
2021/11/16 06:20:43;;;;;;;152.02;48.03;;;4.40;99.90;;;;;;5013729;28;20030;-75
2021/11/16 06:23:11;;;;;;;164.90;54.55;;;4.50;99.90;;;;;;5014670;28;20042;-75
2021/11/16 06:25:38;;;;;;;156.63;48.95;;;4.50;99.90;;;;;;5014315;28;20030;-75
2021/11/16 06:28:04;;;;;;;148.77;48.92;;;4.40;99.90;;;;;;5023716;28;20034;-75
2021/11/16 06:30:29;;;;;;;115.85;37.97;;;4.40;99.90;;;;;;5034136;28;20029;-74
2021/11/16 06:32:55;;;;;;;116.13;41.53;;;4.50;99.90;;;;;;5034094;28;20052;-74
2021/11/16 06:35:21;;;;;;;115.32;41.83;;;4.40;99.90;;;;;;5033500;28;20105;-74
2021/11/16 06:37:48;;;;;;;120.75;46.83;;;4.50;99.90;;;;;;5033940;28;20068;-74
2021/11/16 06:40:16;;;;;;;136.32;49.97;;;4.40;99.90;;;;;;5033996;28;20018;-74
2021/11/16 06:42:42;;;;;;;127.25;45.13;;;4.50;99.90;;;;;;5032717;28;20033;-74
2021/11/16 06:45:08;;;;;;;130.27;44.75;;;4.50;99.90;;;;;;5042808;28;20028;-74
2021/11/16 06:47:34;;;;;;;137.05;47.90;;;4.50;99.90;;;;;;5046147;28;20071;-75
2021/11/16 06:50:00;;;;;;;114.85;42.25;;;4.50;99.90;;;;;;5033124;28;20025;-74
2021/11/16 06:52:29;;;;;;;99.95;38.72;;;4.50;99.90;;;;;;5033731;28;20029;-74
2021/11/16 06:54:54;;;;;;;117.13;42.67;;;4.40;99.90;;;;;;5033194;28;20018;-75
2021/11/16 06:57:25;;;;;;;115.15;42.33;;;4.40;99.90;;;;;;5033535;28;20034;-74
2021/11/16 06:59:51;;;;;;;110.75;41.10;;;4.50;99.90;;;;;;5031948;28;20061;-74
2021/11/16 07:02:25;;;;;;;115.30;41.97;;;4.40;99.90;;;;;;5030183;28;20049;-74
2021/11/16 07:04:50;;;;;;;119.97;42.55;;;4.40;99.90;;;;;;5031793;28;20360;-74
2021/11/16 07:07:16;;;;;;;105.22;38.47;;;4.30;99.90;;;;;;5032508;28;20030;-75
2021/11/16 07:09:43;;;;;;;100.78;38.30;;;4.30;99.90;;;;;;5031638;28;20029;-75
2021/11/16 07:12:12;;;;;;;114.57;41.40;;;4.30;99.90;;;;;;5031242;28;20095;-74
2021/11/16 07:14:38;;;;;;;103.25;41.75;;;4.30;99.90;;;;;;5033189;28;20025;-74
2021/11/16 07:17:07;;;;;;;113.82;42.65;;;4.30;99.90;;;;;;5032902;28;20125;-74
2021/11/16 07:19:34;;;;;;;111.90;43.30;;;4.40;99.90;;;;;;5033433;28;20108;-74
2021/11/16 07:22:04;;;;;;;101.18;42.25;;;4.40;99.90;;;;;;5033125;28;20018;-75
2021/11/16 07:24:31;;;;;;;108.53;40.20;;;4.50;99.90;;;;;;5032278;28;20032;-75
2021/11/16 07:27:02;;;;;;;107.55;42.33;;;4.50;99.90;;;;;;5033057;28;20079;-74
2021/11/16 07:29:52;;;;;;;115.18;41.65;;;4.50;99.90;;;;;;5030684;28;20470;-74
2021/11/16 07:32:30;;;;;;;107.38;41.22;;;4.50;99.90;;;;;;5032295;28;20434;-74
2021/11/16 07:35:04;;;;;;;101.88;39.60;;;4.50;99.90;;;;;;5031017;28;20030;-75
2021/11/16 07:37:35;;;;;;;94.72;40.28;;;4.50;99.90;;;;;;5028292;28;20486;-74
2021/11/16 07:40:10;;;;;;;88.20;34.97;;;4.50;99.90;;;;;;5032872;28;20033;-74
2021/11/16 07:42:58;;;;;;;99.40;40.50;;;4.50;99.90;;;;;;5032741;28;20113;-74
2021/11/16 07:45:30;;;;;;;82.70;34.58;;;4.50;99.90;;;;;;5032787;28;20023;-75
2021/11/16 07:48:07;;;;;;;101.35;41.70;;;4.60;99.90;;;;;;5033374;28;20383;-74
2021/11/16 07:50:45;;;;;;;99.53;39.33;;;4.60;99.90;;;;;;5033043;28;20479;-74
2021/11/16 07:53:29;;;;;;;95.47;39.55;;;4.60;99.90;;;;;;5033257;28;20021;-74
2021/11/16 07:56:00;;;;;;;97.75;40.47;;;4.60;99.90;;;;;;5032971;28;20036;-75
2021/11/16 07:58:33;;;;;;;87.53;37.63;;;4.60;99.90;;;;;;5031857;28;20502;-75
2021/11/16 08:01:01;;;;;;;;;;;4.70;99.90;;;;;;5033544;28;20097;-75
2021/11/16 08:03:30;;;;;;;94.50;36.67;;;4.70;99.90;;;;;;5033166;28;19915;-75
2021/11/16 08:11:14;;;;;;;104.50;39.90;;;4.60;99.90;;;;;;5032524;28;20068;-75
2021/11/16 08:13:53;;;;;;;98.30;41.65;;;4.60;99.90;;;;;;5030239;28;20056;-75
2021/11/16 08:16:21;;;;;;;92.68;38.25;;;4.60;99.90;;;;;;5032295;28;20037;-75
2021/11/16 08:18:56;;;;;;;107.65;40.75;;;4.70;99.90;;;;;;5032373;28;20628;-75
2021/11/16 08:21:23;;;;;;;98.28;42.72;;;4.70;99.90;;;;;;5031128;28;20368;-75
2021/11/16 08:23:59;;;;;;;112.70;41.83;;;4.70;99.90;;;;;;5031045;28;20498;-75
2021/11/16 08:26:31;;;;;;;100.97;39.85;;;4.70;99.90;;;;;;5032459;28;20464;-75
2021/11/16 08:28:57;;;;;;;86.00;37.22;;;4.80;99.90;;;;;;5030230;28;20026;-75
2021/11/16 08:31:24;;;;;;;83.35;35.72;;;4.80;99.90;;;;;;5032797;28;20056;-75
2021/11/16 08:33:52;;;;;;;85.97;34.17;;;4.90;99.90;;;;;;5032724;28;20509;-75
2021/11/16 08:36:27;;;;;;;78.10;34.15;;;4.90;99.90;;;;;;5031589;28;20124;-74
2021/11/16 08:38:56;;;;;;;72.20;30.35;;;4.90;99.90;;;;;;5032682;28;20014;-74
2021/11/16 08:41:29;;;;;;;73.22;32.10;;;5.00;99.90;;;;;;5032728;28;20026;-74
2021/11/16 08:44:10;;;;;;;70.53;29.88;;;4.90;99.90;;;;;;5032640;28;20021;-74
2021/11/16 08:46:36;;;;;;;73.85;29.48;;;4.90;99.90;;;;;;5032546;28;20021;-74
2021/11/16 08:49:03;;;;;;;70.90;29.85;;;5.00;99.90;;;;;;5032566;28;20025;-75
2021/11/16 08:51:39;;;;;;;66.30;28.02;;;5.00;99.90;;;;;;5030951;28;20032;-74
2021/11/16 08:54:05;;;;;;;72.93;29.58;;;5.00;99.90;;;;;;5032556;28;20030;-75
2021/11/16 08:56:37;;;;;;;67.15;27.85;;;5.10;99.90;;;;;;5047754;28;20026;-74
2021/11/16 08:59:21;;;;;;;68.20;28.52;;;5.20;99.90;;;;;;5032558;28;20013;-74
2021/11/16 09:01:54;;;;;;;65.93;26.80;;;5.20;99.90;;;;;;5031216;28;20030;-74
2021/11/16 09:04:31;;;;;;;67.90;28.98;;;5.20;99.90;;;;;;5032448;28;20021;-74
2021/11/16 09:06:57;;;;;;;72.57;29.35;;;5.20;99.90;;;;;;5032488;28;20021;-74
2021/11/16 09:09:24;;;;;;;62.65;27.38;;;5.30;99.90;;;;;;5032369;28;20018;-75
2021/11/16 09:12:02;;;;;;;61.85;29.67;;;5.30;99.90;;;;;;5032414;28;20432;-75
2021/11/16 09:14:29;;;;;;;60.42;27.83;;;5.30;99.90;;;;;;5032314;28;20018;-75
2021/11/16 09:16:55;;;;;;;60.65;27.73;;;5.40;99.90;;;;;;5030850;28;20100;-75
2021/11/16 09:19:30;;;;;;;50.83;26.70;;;5.50;99.90;;;;;;5031700;28;20050;-75
2021/11/16 09:21:58;;;;;;;53.25;24.52;;;5.50;99.90;;;;;;5031333;28;20044;-75
2021/11/16 09:24:36;;;;;;;59.60;25.63;;;5.70;99.90;;;;;;5031577;28;20483;-75
2021/11/16 09:29:33;;;;;;;55.88;27.10;;;5.70;99.90;;;;;;5035471;28;20034;-75
2021/11/16 09:32:01;;;;;;;50.67;24.38;;;5.80;99.90;;;;;;5035505;28;20033;-75
2021/11/16 09:34:31;;;;;;;55.22;24.08;;;5.80;99.90;;;;;;5034254;28;20491;-75
2021/11/16 09:37:15;;;;;;;61.97;27.00;;;5.80;99.90;;;;;;5035573;28;20068;-75
2021/11/16 09:39:45;;;;;;;54.97;27.67;;;6.00;99.90;;;;;;5034288;28;20112;-75
2021/11/16 09:42:16;;;;;;;67.57;31.45;;;6.00;99.90;;;;;;5035637;28;20025;-75
2021/11/16 09:44:49;;;;;;;54.97;26.83;;;6.10;99.90;;;;;;5034474;28;20026;-75
2021/11/16 09:47:18;;;;;;;63.08;27.95;;;6.20;99.90;;;;;;5032100;28;20619;-75
2021/11/16 09:49:52;;;;;;;49.25;23.35;;;6.20;99.90;;;;;;5033143;28;20100;-75
2021/11/16 09:52:21;;;;;;;46.08;24.33;;;6.30;99.90;;;;;;5033471;28;20029;-75
2021/11/16 09:54:53;;;;;;;57.78;28.75;;;6.30;99.90;;;;;;5033164;28;20025;-75
2021/11/16 09:57:26;;;;;;;50.15;26.27;;;6.30;99.90;;;;;;5033108;28;20064;-75
2021/11/16 09:59:52;;;;;;;;;;;6.30;99.90;;;;;;5034405;28;20053;-75
2021/11/16 10:02:27;;;;;;;59.75;27.77;;;6.30;99.90;;;;;;5035239;28;19905;-75
2021/11/16 10:05:02;;;;;;;60.55;27.55;;;6.40;99.90;;;;;;5035091;28;20060;-75
2021/11/16 10:07:29;;;;;;;54.92;23.50;;;6.40;99.90;;;;;;5033852;28;20457;-75
2021/11/16 10:09:55;;;;;;;55.35;23.98;;;6.40;99.90;;;;;;5035102;28;20390;-75
2021/11/16 10:12:24;;;;;;;49.53;24.58;;;6.40;99.90;;;;;;5035048;28;20036;-75
2021/11/16 10:14:51;;;;;;;54.70;25.65;;;6.40;99.90;;;;;;5034863;28;20510;-75
2021/11/16 10:17:19;;;;;;;61.63;26.38;;;6.40;99.90;;;;;;5034904;28;20029;-75
2021/11/16 10:19:46;;;;;;;55.63;25.92;;;6.40;99.90;;;;;;5033578;28;20029;-75
2021/11/16 10:22:14;;;;;;;56.85;26.13;;;6.40;99.90;;;;;;5034883;28;20151;-75
2021/11/16 10:24:41;;;;;;;48.45;24.52;;;6.40;99.90;;;;;;5033424;28;20049;-75
2021/11/16 10:27:30;;;;;;;49.67;24.17;;;6.40;99.90;;;;;;5034781;28;20037;-75
2021/11/16 10:30:18;;;;;;;51.63;24.13;;;6.50;99.90;;;;;;5034599;28;20021;-75
2021/11/16 10:33:06;;;;;;;45.50;22.75;;;6.50;99.90;;;;;;5034640;28;20025;-75
2021/11/16 10:35:33;;;;;;;52.38;23.05;;;6.50;99.90;;;;;;5034557;28;20045;-75
2021/11/16 10:37:59;;;;;;;53.25;26.25;;;6.60;99.90;;;;;;5034399;28;20029;-75
2021/11/16 10:40:27;;;;;;;54.55;26.08;;;6.60;99.90;;;;;;5034432;28;20059;-75
2021/11/16 10:42:56;;;;;;;52.28;24.80;;;6.60;99.90;;;;;;5033170;28;20024;-75
2021/11/16 10:45:25;;;;;;;53.85;23.50;;;6.60;99.90;;;;;;5034313;28;20029;-75
2021/11/16 10:47:55;;;;;;;48.78;25.02;;;6.60;99.90;;;;;;5033088;28;20025;-75
2021/11/16 10:50:23;;;;;;;49.30;24.40;;;6.70;99.90;;;;;;5034430;28;20117;-75
2021/11/16 10:53:02;;;;;;;49.13;22.23;;;6.70;99.90;;;;;;5034292;28;20104;-75
2021/11/16 10:55:36;;;;;;;55.13;25.35;;;6.70;99.90;;;;;;5034244;28;20025;-75
2021/11/16 10:58:05;;;;;;;52.30;23.95;;;6.70;99.90;;;;;;5034167;28;20036;-75
2021/11/16 11:00:59;;;;;;;53.40;23.83;;;6.80;99.90;;;;;;5032721;28;20479;-75
2021/11/16 11:03:33;;;;;;;47.38;24.35;;;6.90;99.90;;;;;;5034076;28;20018;-75
2021/11/16 11:06:15;;;;;;;46.13;23.80;;;6.90;99.90;;;;;;5034019;28;20212;-75
2021/11/16 11:08:43;;;;;;;49.38;25.52;;;6.90;99.90;;;;;;5034039;28;20040;-75
2021/11/16 11:11:32;;;;;;;45.42;22.13;;;7.00;99.90;;;;;;5034412;28;20029;-75
2021/11/16 11:14:09;;;;;;;52.90;26.88;;;7.00;99.90;;;;;;5032578;28;20025;-75
2021/11/16 11:16:43;;;;;;;42.97;22.70;;;7.10;99.90;;;;;;5032405;28;20091;-75
2021/11/16 11:19:12;;;;;;;49.03;23.40;;;7.10;99.90;;;;;;5033826;28;20021;-75
2021/11/16 11:21:43;;;;;;;47.47;24.02;;;7.10;99.90;;;;;;5033635;28;20017;-75
2021/11/16 11:24:17;;;;;;;43.72;21.52;;;7.10;99.90;;;;;;5033609;28;20036;-75
2021/11/16 11:26:46;;;;;;;54.63;24.45;;;7.10;99.90;;;;;;5033674;28;20100;-75
2021/11/16 11:29:44;;;;;;;45.65;23.52;;;7.10;99.90;;;;;;5033418;28;20052;-75
2021/11/16 11:32:16;;;;;;;42.72;20.42;;;7.10;99.90;;;;;;5023568;28;20021;-75
2021/11/16 11:34:58;;;;;;;54.33;22.38;;;7.20;99.90;;;;;;5012842;28;20116;-75
2021/11/16 11:37:28;;;;;;;52.40;25.52;;;7.20;99.90;;;;;;5020814;28;20390;-75
2021/11/16 11:40:14;;;;;;;54.92;26.73;;;7.30;99.90;;;;;;5032059;28;20021;-75
2021/11/16 11:42:49;;;;;;;54.22;26.45;;;7.40;99.90;;;;;;5033035;28;20034;-75
2021/11/16 11:45:23;;;;;;;42.00;21.30;;;7.50;99.90;;;;;;5033164;28;20021;-75
2021/11/16 11:48:08;;;;;;;39.65;22.05;;;7.50;99.90;;;;;;5048143;28;20395;-75
2021/11/16 11:50:44;;;;;;;43.00;21.35;;;7.60;99.90;;;;;;5017599;28;20048;-75
2021/11/16 11:53:22;;;;;;;47.63;24.40;;;7.60;99.90;;;;;;5032099;28;20039;-75
2021/11/16 11:55:52;;;;;;;43.42;21.27;;;7.60;99.90;;;;;;5030310;28;20471;-75
2021/11/16 11:58:21;;;;;;;38.40;20.92;;;7.60;99.90;;;;;;5036260;28;20049;-75
2021/11/16 12:00:48;;;;;;;43.50;20.30;;;7.60;99.90;;;;;;5032281;28;20060;-75
2021/11/16 12:03:14;;;;;;;43.58;21.15;;;7.60;99.90;;;;;;5033031;28;20116;-75
2021/11/16 12:05:42;;;;;;;41.08;20.60;;;7.50;99.90;;;;;;5032566;28;20109;-75
2021/11/16 12:08:09;;;;;;;38.80;19.88;;;7.50;99.90;;;;;;5033032;28;20111;-75
2021/11/16 12:10:37;;;;;;;45.30;22.63;;;7.50;99.90;;;;;;5031731;28;20037;-75
2021/11/16 12:13:06;;;;;;;41.65;21.35;;;7.40;99.90;;;;;;5032970;28;20144;-75
2021/11/16 12:15:41;;;;;;;45.35;21.63;;;7.50;99.90;;;;;;5032790;28;20029;-75
2021/11/16 12:18:08;;;;;;;42.00;21.60;;;7.50;99.90;;;;;;5032970;28;20030;-75
2021/11/16 12:20:49;;;;;;;47.15;22.00;;;7.50;99.90;;;;;;5032711;28;20049;-75
2021/11/16 12:23:18;;;;;;;44.60;23.85;;;7.60;99.90;;;;;;5031605;28;20021;-75
2021/11/16 12:25:47;;;;;;;41.00;21.35;;;7.60;99.90;;;;;;5032760;28;20100;-75
2021/11/16 12:28:32;;;;;;;38.72;21.67;;;7.50;99.90;;;;;;5032836;28;20087;-75
2021/11/16 12:31:00;;;;;;;49.53;22.67;;;7.50;99.90;;;;;;5031320;28;20025;-75
2021/11/16 12:33:42;;;;;;;48.30;23.30;;;7.50;99.90;;;;;;5032758;28;20554;-75
2021/11/16 12:36:09;;;;;;;48.60;23.88;;;7.50;99.90;;;;;;5032678;28;20080;-75
2021/11/16 12:38:37;;;;;;;54.05;25.20;;;7.50;99.90;;;;;;5032606;28;20471;-75
2021/11/16 12:41:29;;;;;;;55.55;24.90;;;7.40;99.90;;;;;;5031305;28;20025;-75
2021/11/16 12:43:58;;;;;;;52.90;24.00;;;7.40;99.90;;;;;;5032666;28;20041;-75
2021/11/16 12:46:28;;;;;;;51.58;26.48;;;7.40;99.90;;;;;;5032653;28;20434;-75
2021/11/16 12:48:56;;;;;;;55.17;25.00;;;7.20;99.90;;;;;;5030977;28;20422;-75
2021/11/16 12:51:34;;;;;;;54.67;26.05;;;7.20;99.90;;;;;;5032542;28;20026;-75
2021/11/16 12:54:08;;;;;;;55.67;25.80;;;7.20;99.90;;;;;;5032694;28;20030;-75
2021/11/16 12:56:43;;;;;;;57.05;28.08;;;7.20;99.90;;;;;;5031943;28;20112;-75
2021/11/16 12:59:10;;;;;;;53.35;26.83;;;7.10;99.90;;;;;;5029162;28;20433;-75
2021/11/16 13:01:36;;;;;;;58.13;27.77;;;7.10;99.90;;;;;;5031921;28;20116;-75
2021/11/16 13:04:06;;;;;;;52.97;27.80;;;7.00;99.90;;;;;;5033035;28;20096;-75
2021/11/16 13:06:32;;;;;;;57.83;28.45;;;6.90;99.90;;;;;;5032950;28;20029;-75